sensor_id;sensor_type;location;lat;lon;timestamp;P1;durP1;ratioP1;P2;durP2;ratioP2
14754;SDS011;7469;50.906;6.952;2022-09-21T00:01:02;6.13;;;3.07;;
14754;SDS011;7469;50.906;6.952;2022-09-21T00:03:31;4.70;;;3.10;;
14754;SDS011;7469;50.906;6.952;2022-09-21T00:06:02;6.53;;;2.90;;
14754;SDS011;7469;50.906;6.952;2022-09-21T00:08:32;9.00;;;3.30;;
14754;SDS011;7469;50.906;6.952;2022-09-21T00:11:00;5.93;;;3.20;;
14754;SDS011;7469;50.906;6.952;2022-09-21T00:13:30;6.93;;;3.13;;
14754;SDS011;7469;50.906;6.952;2022-09-21T00:16:00;7.43;;;3.20;;
14754;SDS011;7469;50.906;6.952;2022-09-21T00:18:30;6.70;;;2.80;;
14754;SDS011;7469;50.906;6.952;2022-09-21T00:20:59;7.13;;;2.93;;
14754;SDS011;7469;50.906;6.952;2022-09-21T00:23:27;5.70;;;3.03;;
14754;SDS011;7469;50.906;6.952;2022-09-21T00:26:04;8.70;;;3.40;;
14754;SDS011;7469;50.906;6.952;2022-09-21T00:28:33;7.27;;;2.97;;
14754;SDS011;7469;50.906;6.952;2022-09-21T00:31:01;6.37;;;3.10;;
14754;SDS011;7469;50.906;6.952;2022-09-21T00:33:31;6.90;;;2.70;;
14754;SDS011;7469;50.906;6.952;2022-09-21T00:36:03;5.50;;;3.00;;
14754;SDS011;7469;50.906;6.952;2022-09-21T00:38:33;6.67;;;3.10;;
14754;SDS011;7469;50.906;6.952;2022-09-21T00:41:03;6.47;;;3.20;;
14754;SDS011;7469;50.906;6.952;2022-09-21T00:43:32;7.87;;;3.03;;
14754;SDS011;7469;50.906;6.952;2022-09-21T00:46:04;8.17;;;3.03;;
14754;SDS011;7469;50.906;6.952;2022-09-21T00:48:38;5.50;;;2.47;;
14754;SDS011;7469;50.906;6.952;2022-09-21T00:51:07;5.93;;;2.87;;
14754;SDS011;7469;50.906;6.952;2022-09-21T00:53:35;8.97;;;3.37;;
14754;SDS011;7469;50.906;6.952;2022-09-21T00:56:06;6.17;;;3.37;;
14754;SDS011;7469;50.906;6.952;2022-09-21T00:58:37;6.77;;;3.23;;
14754;SDS011;7469;50.906;6.952;2022-09-21T01:01:09;11.03;;;3.20;;
14754;SDS011;7469;50.906;6.952;2022-09-21T01:03:41;8.77;;;3.27;;
14754;SDS011;7469;50.906;6.952;2022-09-21T01:06:11;10.73;;;4.13;;
14754;SDS011;7469;50.906;6.952;2022-09-21T01:08:39;7.40;;;3.43;;
14754;SDS011;7469;50.906;6.952;2022-09-21T01:14:08;12.13;;;3.97;;
14754;SDS011;7469;50.906;6.952;2022-09-21T01:16:50;8.63;;;3.20;;
14754;SDS011;7469;50.906;6.952;2022-09-21T01:22:25;6.73;;;3.03;;
14754;SDS011;7469;50.906;6.952;2022-09-21T01:25:04;9.10;;;4.20;;
14754;SDS011;7469;50.906;6.952;2022-09-21T01:27:50;6.23;;;3.10;;
14754;SDS011;7469;50.906;6.952;2022-09-21T01:30:31;6.97;;;2.97;;
14754;SDS011;7469;50.906;6.952;2022-09-21T01:33:03;9.53;;;3.60;;
14754;SDS011;7469;50.906;6.952;2022-09-21T01:35:38;7.63;;;3.13;;
14754;SDS011;7469;50.906;6.952;2022-09-21T01:38:11;7.37;;;3.30;;
14754;SDS011;7469;50.906;6.952;2022-09-21T01:40:44;4.83;;;3.60;;
14754;SDS011;7469;50.906;6.952;2022-09-21T01:43:18;8.20;;;3.70;;
14754;SDS011;7469;50.906;6.952;2022-09-21T01:45:52;5.57;;;3.30;;
14754;SDS011;7469;50.906;6.952;2022-09-21T01:48:22;4.90;;;3.00;;
14754;SDS011;7469;50.906;6.952;2022-09-21T01:50:52;6.53;;;3.80;;
14754;SDS011;7469;50.906;6.952;2022-09-21T01:53:25;10.13;;;3.77;;
14754;SDS011;7469;50.906;6.952;2022-09-21T01:55:58;11.70;;;3.47;;
14754;SDS011;7469;50.906;6.952;2022-09-21T01:58:32;6.78;;;3.45;;
14754;SDS011;7469;50.906;6.952;2022-09-21T02:01:05;9.17;;;3.63;;
14754;SDS011;7469;50.906;6.952;2022-09-21T02:03:38;10.37;;;3.47;;
14754;SDS011;7469;50.906;6.952;2022-09-21T02:06:09;10.90;;;4.10;;
14754;SDS011;7469;50.906;6.952;2022-09-21T02:08:38;7.50;;;3.80;;
14754;SDS011;7469;50.906;6.952;2022-09-21T02:11:06;11.73;;;3.97;;
14754;SDS011;7469;50.906;6.952;2022-09-21T02:13:37;7.03;;;3.40;;
14754;SDS011;7469;50.906;6.952;2022-09-21T02:16:14;6.43;;;3.60;;
14754;SDS011;7469;50.906;6.952;2022-09-21T02:19:00;9.47;;;3.73;;
14754;SDS011;7469;50.906;6.952;2022-09-21T02:21:41;10.33;;;4.03;;
14754;SDS011;7469;50.906;6.952;2022-09-21T02:24:19;5.83;;;3.73;;
14754;SDS011;7469;50.906;6.952;2022-09-21T02:27:00;5.43;;;3.50;;
14754;SDS011;7469;50.906;6.952;2022-09-21T02:29:36;8.80;;;4.27;;
14754;SDS011;7469;50.906;6.952;2022-09-21T02:32:16;10.80;;;4.90;;
14754;SDS011;7469;50.906;6.952;2022-09-21T02:34:52;8.57;;;4.77;;
14754;SDS011;7469;50.906;6.952;2022-09-21T02:37:27;6.50;;;4.00;;
14754;SDS011;7469;50.906;6.952;2022-09-21T02:40:03;8.13;;;4.43;;
14754;SDS011;7469;50.906;6.952;2022-09-21T02:42:38;9.93;;;3.93;;
14754;SDS011;7469;50.906;6.952;2022-09-21T02:45:12;6.07;;;4.13;;
14754;SDS011;7469;50.906;6.952;2022-09-21T02:47:48;8.20;;;4.93;;
14754;SDS011;7469;50.906;6.952;2022-09-21T02:50:20;10.73;;;4.80;;
14754;SDS011;7469;50.906;6.952;2022-09-21T02:52:51;10.07;;;5.00;;
14754;SDS011;7469;50.906;6.952;2022-09-21T02:55:20;11.60;;;5.00;;
14754;SDS011;7469;50.906;6.952;2022-09-21T02:57:50;10.10;;;5.23;;
14754;SDS011;7469;50.906;6.952;2022-09-21T03:00:20;7.87;;;5.17;;
14754;SDS011;7469;50.906;6.952;2022-09-21T03:02:49;10.60;;;5.23;;
14754;SDS011;7469;50.906;6.952;2022-09-21T03:05:17;8.03;;;5.43;;
14754;SDS011;7469;50.906;6.952;2022-09-21T03:07:45;10.87;;;5.47;;
14754;SDS011;7469;50.906;6.952;2022-09-21T03:10:13;9.83;;;5.80;;
14754;SDS011;7469;50.906;6.952;2022-09-21T03:12:42;11.93;;;5.53;;
14754;SDS011;7469;50.906;6.952;2022-09-21T03:15:12;9.43;;;6.10;;
14754;SDS011;7469;50.906;6.952;2022-09-21T03:17:41;9.17;;;5.63;;
14754;SDS011;7469;50.906;6.952;2022-09-21T03:20:11;9.87;;;5.90;;
14754;SDS011;7469;50.906;6.952;2022-09-21T03:22:39;10.20;;;5.93;;
14754;SDS011;7469;50.906;6.952;2022-09-21T03:25:07;10.60;;;6.67;;
14754;SDS011;7469;50.906;6.952;2022-09-21T03:27:38;13.20;;;6.67;;
14754;SDS011;7469;50.906;6.952;2022-09-21T03:30:06;9.57;;;6.77;;
14754;SDS011;7469;50.906;6.952;2022-09-21T03:32:35;9.70;;;6.87;;
14754;SDS011;7469;50.906;6.952;2022-09-21T03:35:03;6.97;;;6.27;;
14754;SDS011;7469;50.906;6.952;2022-09-21T03:37:33;13.00;;;6.43;;
14754;SDS011;7469;50.906;6.952;2022-09-21T03:40:06;10.87;;;6.20;;
14754;SDS011;7469;50.906;6.952;2022-09-21T03:42:36;10.27;;;6.47;;
14754;SDS011;7469;50.906;6.952;2022-09-21T03:45:05;8.07;;;6.17;;
14754;SDS011;7469;50.906;6.952;2022-09-21T03:47:34;10.27;;;7.10;;
14754;SDS011;7469;50.906;6.952;2022-09-21T03:50:03;8.43;;;6.30;;
14754;SDS011;7469;50.906;6.952;2022-09-21T03:52:36;10.30;;;6.87;;
14754;SDS011;7469;50.906;6.952;2022-09-21T03:55:05;12.20;;;6.67;;
14754;SDS011;7469;50.906;6.952;2022-09-21T03:57:35;13.93;;;6.80;;
14754;SDS011;7469;50.906;6.952;2022-09-21T04:00:04;9.03;;;6.60;;
14754;SDS011;7469;50.906;6.952;2022-09-21T04:02:34;8.50;;;6.77;;
14754;SDS011;7469;50.906;6.952;2022-09-21T04:05:03;9.97;;;6.40;;
14754;SDS011;7469;50.906;6.952;2022-09-21T04:07:32;9.37;;;6.77;;
14754;SDS011;7469;50.906;6.952;2022-09-21T04:10:02;9.93;;;6.63;;
14754;SDS011;7469;50.906;6.952;2022-09-21T04:12:32;13.97;;;7.97;;
14754;SDS011;7469;50.906;6.952;2022-09-21T04:15:00;12.50;;;8.13;;
14754;SDS011;7469;50.906;6.952;2022-09-21T04:17:29;12.70;;;7.60;;
14754;SDS011;7469;50.906;6.952;2022-09-21T04:19:57;14.97;;;7.93;;
14754;SDS011;7469;50.906;6.952;2022-09-21T04:22:25;9.60;;;7.93;;
14754;SDS011;7469;50.906;6.952;2022-09-21T04:24:53;14.30;;;7.53;;
14754;SDS011;7469;50.906;6.952;2022-09-21T04:27:22;9.53;;;6.83;;
14754;SDS011;7469;50.906;6.952;2022-09-21T04:29:50;11.33;;;6.93;;
14754;SDS011;7469;50.906;6.952;2022-09-21T04:32:18;14.13;;;8.00;;
14754;SDS011;7469;50.906;6.952;2022-09-21T04:34:46;10.73;;;7.63;;
14754;SDS011;7469;50.906;6.952;2022-09-21T04:37:14;10.93;;;8.10;;
14754;SDS011;7469;50.906;6.952;2022-09-21T04:39:42;14.90;;;8.70;;
14754;SDS011;7469;50.906;6.952;2022-09-21T04:42:10;13.97;;;9.50;;
14754;SDS011;7469;50.906;6.952;2022-09-21T04:44:39;20.33;;;10.03;;
14754;SDS011;7469;50.906;6.952;2022-09-21T04:47:07;21.67;;;9.93;;
14754;SDS011;7469;50.906;6.952;2022-09-21T04:49:35;13.70;;;9.70;;
14754;SDS011;7469;50.906;6.952;2022-09-21T04:52:03;16.13;;;10.70;;
14754;SDS011;7469;50.906;6.952;2022-09-21T04:54:32;16.30;;;10.83;;
14754;SDS011;7469;50.906;6.952;2022-09-21T04:56:59;22.57;;;10.67;;
14754;SDS011;7469;50.906;6.952;2022-09-21T04:59:27;15.30;;;10.23;;
14754;SDS011;7469;50.906;6.952;2022-09-21T05:01:57;23.37;;;10.83;;
14754;SDS011;7469;50.906;6.952;2022-09-21T05:04:25;17.40;;;10.73;;
14754;SDS011;7469;50.906;6.952;2022-09-21T05:06:53;19.53;;;11.00;;
14754;SDS011;7469;50.906;6.952;2022-09-21T05:09:22;20.70;;;11.00;;
14754;SDS011;7469;50.906;6.952;2022-09-21T05:12:07;21.87;;;10.57;;
14754;SDS011;7469;50.906;6.952;2022-09-21T05:14:35;16.57;;;9.50;;
14754;SDS011;7469;50.906;6.952;2022-09-21T05:17:05;22.93;;;10.33;;
14754;SDS011;7469;50.906;6.952;2022-09-21T05:19:33;16.20;;;10.10;;
14754;SDS011;7469;50.906;6.952;2022-09-21T05:22:01;22.40;;;11.30;;
14754;SDS011;7469;50.906;6.952;2022-09-21T05:24:28;16.13;;;10.20;;
14754;SDS011;7469;50.906;6.952;2022-09-21T05:26:56;16.50;;;10.77;;
14754;SDS011;7469;50.906;6.952;2022-09-21T05:29:24;17.57;;;10.03;;
14754;SDS011;7469;50.906;6.952;2022-09-21T05:31:55;15.40;;;9.90;;
14754;SDS011;7469;50.906;6.952;2022-09-21T05:34:31;15.50;;;9.57;;
14754;SDS011;7469;50.906;6.952;2022-09-21T05:37:09;25.03;;;9.53;;
14754;SDS011;7469;50.906;6.952;2022-09-21T05:39:47;32.30;;;10.40;;
14754;SDS011;7469;50.906;6.952;2022-09-21T05:42:15;15.67;;;9.70;;
14754;SDS011;7469;50.906;6.952;2022-09-21T05:44:43;12.53;;;9.60;;
14754;SDS011;7469;50.906;6.952;2022-09-21T05:47:17;21.40;;;10.17;;
14754;SDS011;7469;50.906;6.952;2022-09-21T05:49:54;16.63;;;10.33;;
14754;SDS011;7469;50.906;6.952;2022-09-21T05:52:29;24.13;;;10.60;;
14754;SDS011;7469;50.906;6.952;2022-09-21T05:55:09;14.43;;;10.17;;
14754;SDS011;7469;50.906;6.952;2022-09-21T05:57:52;21.77;;;9.97;;
14754;SDS011;7469;50.906;6.952;2022-09-21T06:00:26;22.57;;;10.90;;
14754;SDS011;7469;50.906;6.952;2022-09-21T06:03:13;11.30;;;9.30;;
14754;SDS011;7469;50.906;6.952;2022-09-21T06:05:56;20.97;;;11.00;;
14754;SDS011;7469;50.906;6.952;2022-09-21T06:08:25;32.73;;;9.90;;
14754;SDS011;7469;50.906;6.952;2022-09-21T06:10:53;10.73;;;8.97;;
14754;SDS011;7469;50.906;6.952;2022-09-21T06:13:21;18.53;;;9.03;;
14754;SDS011;7469;50.906;6.952;2022-09-21T06:15:49;19.17;;;9.03;;
14754;SDS011;7469;50.906;6.952;2022-09-21T06:18:17;12.93;;;8.33;;
14754;SDS011;7469;50.906;6.952;2022-09-21T06:20:45;16.63;;;8.30;;
14754;SDS011;7469;50.906;6.952;2022-09-21T06:23:15;30.50;;;9.27;;
14754;SDS011;7469;50.906;6.952;2022-09-21T06:25:43;15.17;;;9.03;;
14754;SDS011;7469;50.906;6.952;2022-09-21T06:28:11;13.03;;;9.00;;
14754;SDS011;7469;50.906;6.952;2022-09-21T06:30:39;29.63;;;9.73;;
14754;SDS011;7469;50.906;6.952;2022-09-21T06:33:10;20.67;;;10.73;;
14754;SDS011;7469;50.906;6.952;2022-09-21T06:35:38;34.43;;;10.47;;
14754;SDS011;7469;50.906;6.952;2022-09-21T06:38:06;19.27;;;10.17;;
14754;SDS011;7469;50.906;6.952;2022-09-21T06:40:36;18.53;;;10.00;;
14754;SDS011;7469;50.906;6.952;2022-09-21T06:43:04;13.20;;;10.00;;
14754;SDS011;7469;50.906;6.952;2022-09-21T06:45:32;19.00;;;9.23;;
14754;SDS011;7469;50.906;6.952;2022-09-21T06:48:00;24.43;;;9.53;;
14754;SDS011;7469;50.906;6.952;2022-09-21T06:50:28;10.97;;;9.43;;
14754;SDS011;7469;50.906;6.952;2022-09-21T06:52:58;16.93;;;9.47;;
14754;SDS011;7469;50.906;6.952;2022-09-21T06:55:26;14.27;;;9.23;;
14754;SDS011;7469;50.906;6.952;2022-09-21T06:57:59;30.00;;;11.33;;
14754;SDS011;7469;50.906;6.952;2022-09-21T07:00:28;12.80;;;9.47;;
14754;SDS011;7469;50.906;6.952;2022-09-21T07:02:57;12.30;;;10.10;;
14754;SDS011;7469;50.906;6.952;2022-09-21T07:05:25;15.47;;;10.10;;
14754;SDS011;7469;50.906;6.952;2022-09-21T07:07:55;10.30;;;9.20;;
14754;SDS011;7469;50.906;6.952;2022-09-21T07:10:24;12.37;;;10.27;;
14754;SDS011;7469;50.906;6.952;2022-09-21T07:12:52;13.47;;;11.37;;
14754;SDS011;7469;50.906;6.952;2022-09-21T07:15:22;16.83;;;11.53;;
14754;SDS011;7469;50.906;6.952;2022-09-21T07:17:54;15.37;;;12.20;;
14754;SDS011;7469;50.906;6.952;2022-09-21T07:20:30;27.03;;;13.90;;
14754;SDS011;7469;50.906;6.952;2022-09-21T07:22:58;19.30;;;13.97;;
14754;SDS011;7469;50.906;6.952;2022-09-21T07:25:27;19.13;;;14.07;;
14754;SDS011;7469;50.906;6.952;2022-09-21T07:27:54;22.70;;;14.43;;
14754;SDS011;7469;50.906;6.952;2022-09-21T07:30:24;23.53;;;14.40;;
14754;SDS011;7469;50.906;6.952;2022-09-21T07:32:52;21.73;;;15.07;;
14754;SDS011;7469;50.906;6.952;2022-09-21T07:35:20;18.90;;;14.37;;
14754;SDS011;7469;50.906;6.952;2022-09-21T07:37:48;18.40;;;14.40;;
14754;SDS011;7469;50.906;6.952;2022-09-21T07:40:16;18.30;;;15.27;;
14754;SDS011;7469;50.906;6.952;2022-09-21T07:42:50;18.83;;;14.30;;
14754;SDS011;7469;50.906;6.952;2022-09-21T07:45:18;20.33;;;14.70;;
14754;SDS011;7469;50.906;6.952;2022-09-21T07:47:47;25.37;;;14.77;;
14754;SDS011;7469;50.906;6.952;2022-09-21T07:50:15;15.63;;;13.60;;
14754;SDS011;7469;50.906;6.952;2022-09-21T07:52:43;18.13;;;14.67;;
14754;SDS011;7469;50.906;6.952;2022-09-21T07:55:11;18.23;;;14.20;;
14754;SDS011;7469;50.906;6.952;2022-09-21T07:57:39;20.43;;;15.17;;
14754;SDS011;7469;50.906;6.952;2022-09-21T08:00:24;19.47;;;14.40;;
14754;SDS011;7469;50.906;6.952;2022-09-21T08:02:55;21.60;;;15.07;;
14754;SDS011;7469;50.906;6.952;2022-09-21T08:05:23;18.97;;;14.20;;
14754;SDS011;7469;50.906;6.952;2022-09-21T08:07:53;18.77;;;15.83;;
14754;SDS011;7469;50.906;6.952;2022-09-21T08:10:22;17.03;;;14.60;;
14754;SDS011;7469;50.906;6.952;2022-09-21T08:12:54;15.57;;;13.43;;
14754;SDS011;7469;50.906;6.952;2022-09-21T08:15:23;16.03;;;13.33;;
14754;SDS011;7469;50.906;6.952;2022-09-21T08:18:12;17.33;;;14.17;;
14754;SDS011;7469;50.906;6.952;2022-09-21T08:20:40;16.43;;;13.80;;
14754;SDS011;7469;50.906;6.952;2022-09-21T08:23:09;15.93;;;13.03;;
14754;SDS011;7469;50.906;6.952;2022-09-21T08:25:38;17.77;;;13.60;;
14754;SDS011;7469;50.906;6.952;2022-09-21T08:28:06;15.83;;;14.17;;
14754;SDS011;7469;50.906;6.952;2022-09-21T08:30:35;16.33;;;14.60;;
14754;SDS011;7469;50.906;6.952;2022-09-21T08:33:03;17.23;;;13.53;;
14754;SDS011;7469;50.906;6.952;2022-09-21T08:35:33;17.33;;;14.77;;
14754;SDS011;7469;50.906;6.952;2022-09-21T08:38:02;17.03;;;14.33;;
14754;SDS011;7469;50.906;6.952;2022-09-21T08:40:31;19.00;;;14.87;;
14754;SDS011;7469;50.906;6.952;2022-09-21T08:43:00;15.20;;;13.63;;
14754;SDS011;7469;50.906;6.952;2022-09-21T08:45:35;14.83;;;13.27;;
14754;SDS011;7469;50.906;6.952;2022-09-21T08:48:09;15.77;;;13.33;;
14754;SDS011;7469;50.906;6.952;2022-09-21T08:50:43;16.50;;;13.47;;
14754;SDS011;7469;50.906;6.952;2022-09-21T08:53:15;15.37;;;13.33;;
14754;SDS011;7469;50.906;6.952;2022-09-21T08:55:45;14.67;;;13.23;;
14754;SDS011;7469;50.906;6.952;2022-09-21T08:58:18;19.50;;;13.67;;
14754;SDS011;7469;50.906;6.952;2022-09-21T09:00:49;16.97;;;13.13;;
14754;SDS011;7469;50.906;6.952;2022-09-21T09:03:42;14.10;;;12.60;;
14754;SDS011;7469;50.906;6.952;2022-09-21T09:06:23;13.47;;;12.07;;
14754;SDS011;7469;50.906;6.952;2022-09-21T09:09:01;14.03;;;12.37;;
14754;SDS011;7469;50.906;6.952;2022-09-21T09:12:01;16.13;;;12.10;;
14754;SDS011;7469;50.906;6.952;2022-09-21T09:14:45;13.87;;;11.83;;
14754;SDS011;7469;50.906;6.952;2022-09-21T09:17:28;15.57;;;11.70;;
14754;SDS011;7469;50.906;6.952;2022-09-21T09:20:05;13.53;;;10.50;;
14754;SDS011;7469;50.906;6.952;2022-09-21T09:22:41;12.50;;;9.90;;
14754;SDS011;7469;50.906;6.952;2022-09-21T09:25:15;11.43;;;10.03;;
14754;SDS011;7469;50.906;6.952;2022-09-21T09:27:46;10.47;;;9.37;;
14754;SDS011;7469;50.906;6.952;2022-09-21T09:30:17;10.27;;;9.20;;
14754;SDS011;7469;50.906;6.952;2022-09-21T09:32:49;9.00;;;7.97;;
14754;SDS011;7469;50.906;6.952;2022-09-21T09:35:26;9.97;;;7.50;;
14754;SDS011;7469;50.906;6.952;2022-09-21T09:37:59;11.13;;;7.27;;
14754;SDS011;7469;50.906;6.952;2022-09-21T09:40:36;8.03;;;6.27;;
14754;SDS011;7469;50.906;6.952;2022-09-21T09:43:20;8.67;;;7.07;;
14754;SDS011;7469;50.906;6.952;2022-09-21T09:45:58;11.67;;;6.77;;
14754;SDS011;7469;50.906;6.952;2022-09-21T09:48:49;6.70;;;5.00;;
14754;SDS011;7469;50.906;6.952;2022-09-21T09:51:30;8.93;;;5.33;;
14754;SDS011;7469;50.906;6.952;2022-09-21T09:54:07;7.70;;;4.50;;
14754;SDS011;7469;50.906;6.952;2022-09-21T09:56:40;8.50;;;4.93;;
14754;SDS011;7469;50.906;6.952;2022-09-21T09:59:10;6.40;;;4.18;;
14754;SDS011;7469;50.906;6.952;2022-09-21T10:01:45;7.63;;;4.88;;
14754;SDS011;7469;50.906;6.952;2022-09-21T10:04:24;5.75;;;4.20;;
14754;SDS011;7469;50.906;6.952;2022-09-21T10:06:53;6.35;;;4.30;;
14754;SDS011;7469;50.906;6.952;2022-09-21T10:09:26;5.25;;;4.20;;
14754;SDS011;7469;50.906;6.952;2022-09-21T10:11:56;6.22;;;4.03;;
14754;SDS011;7469;50.906;6.952;2022-09-21T10:14:27;6.00;;;4.53;;
14754;SDS011;7469;50.906;6.952;2022-09-21T10:17:03;6.57;;;4.25;;
14754;SDS011;7469;50.906;6.952;2022-09-21T10:19:33;7.95;;;4.18;;
14754;SDS011;7469;50.906;6.952;2022-09-21T10:22:03;9.27;;;4.28;;
14754;SDS011;7469;50.906;6.952;2022-09-21T10:24:34;6.85;;;3.95;;
14754;SDS011;7469;50.906;6.952;2022-09-21T10:27:06;6.18;;;2.70;;
14754;SDS011;7469;50.906;6.952;2022-09-21T10:29:40;4.68;;;2.45;;
14754;SDS011;7469;50.906;6.952;2022-09-21T10:32:23;7.13;;;2.95;;
14754;SDS011;7469;50.906;6.952;2022-09-21T10:37:43;6.45;;;2.40;;
14754;SDS011;7469;50.906;6.952;2022-09-21T10:40:25;4.78;;;1.90;;
14754;SDS011;7469;50.906;6.952;2022-09-21T10:42:57;3.72;;;1.67;;
14754;SDS011;7469;50.906;6.952;2022-09-21T10:45:26;5.07;;;1.80;;
14754;SDS011;7469;50.906;6.952;2022-09-21T10:47:56;3.92;;;2.03;;
14754;SDS011;7469;50.906;6.952;2022-09-21T10:50:26;5.05;;;1.75;;
14754;SDS011;7469;50.906;6.952;2022-09-21T10:52:59;3.55;;;2.10;;
14754;SDS011;7469;50.906;6.952;2022-09-21T10:55:38;5.20;;;2.00;;
14754;SDS011;7469;50.906;6.952;2022-09-21T10:58:28;4.60;;;1.75;;
14754;SDS011;7469;50.906;6.952;2022-09-21T11:01:09;3.50;;;1.77;;
14754;SDS011;7469;50.906;6.952;2022-09-21T11:03:45;7.20;;;2.50;;
14754;SDS011;7469;50.906;6.952;2022-09-21T11:06:22;2.80;;;1.90;;
14754;SDS011;7469;50.906;6.952;2022-09-21T11:08:57;3.60;;;1.87;;
14754;SDS011;7469;50.906;6.952;2022-09-21T11:11:34;3.87;;;1.70;;
14754;SDS011;7469;50.906;6.952;2022-09-21T11:14:13;4.93;;;2.20;;
14754;SDS011;7469;50.906;6.952;2022-09-21T11:16:49;3.53;;;1.98;;
14754;SDS011;7469;50.906;6.952;2022-09-21T11:19:24;4.53;;;1.67;;
14754;SDS011;7469;50.906;6.952;2022-09-21T11:22:00;4.68;;;1.90;;
14754;SDS011;7469;50.906;6.952;2022-09-21T11:24:35;3.85;;;1.80;;
14754;SDS011;7469;50.906;6.952;2022-09-21T11:27:12;5.97;;;1.97;;
14754;SDS011;7469;50.906;6.952;2022-09-21T11:29:47;4.00;;;1.90;;
14754;SDS011;7469;50.906;6.952;2022-09-21T11:32:25;4.50;;;2.00;;
14754;SDS011;7469;50.906;6.952;2022-09-21T11:35:23;6.70;;;2.13;;
14754;SDS011;7469;50.906;6.952;2022-09-21T11:38:05;5.60;;;1.80;;
14754;SDS011;7469;50.906;6.952;2022-09-21T11:40:55;4.87;;;1.90;;
14754;SDS011;7469;50.906;6.952;2022-09-21T11:43:46;4.77;;;1.80;;
14754;SDS011;7469;50.906;6.952;2022-09-21T11:46:30;5.60;;;1.70;;
14754;SDS011;7469;50.906;6.952;2022-09-21T11:49:11;6.90;;;2.03;;
14754;SDS011;7469;50.906;6.952;2022-09-21T11:52:07;4.73;;;1.87;;
14754;SDS011;7469;50.906;6.952;2022-09-21T11:54:49;10.63;;;1.87;;
14754;SDS011;7469;50.906;6.952;2022-09-21T11:57:28;5.77;;;2.23;;
14754;SDS011;7469;50.906;6.952;2022-09-21T12:00:04;6.33;;;2.00;;
14754;SDS011;7469;50.906;6.952;2022-09-21T12:05:40;4.70;;;1.50;;
14754;SDS011;7469;50.906;6.952;2022-09-21T12:08:28;7.70;;;1.80;;
14754;SDS011;7469;50.906;6.952;2022-09-21T12:11:13;4.27;;;1.60;;
14754;SDS011;7469;50.906;6.952;2022-09-21T12:13:47;2.90;;;1.30;;
14754;SDS011;7469;50.906;6.952;2022-09-21T12:16:22;3.13;;;1.20;;
14754;SDS011;7469;50.906;6.952;2022-09-21T12:18:58;3.87;;;1.40;;
14754;SDS011;7469;50.906;6.952;2022-09-21T12:21:32;3.27;;;1.37;;
14754;SDS011;7469;50.906;6.952;2022-09-21T12:24:03;2.70;;;1.50;;
14754;SDS011;7469;50.906;6.952;2022-09-21T12:26:39;3.33;;;1.40;;
14754;SDS011;7469;50.906;6.952;2022-09-21T12:29:11;6.97;;;1.90;;
14754;SDS011;7469;50.906;6.952;2022-09-21T12:31:46;6.40;;;1.83;;
14754;SDS011;7469;50.906;6.952;2022-09-21T12:34:25;3.33;;;1.50;;
14754;SDS011;7469;50.906;6.952;2022-09-21T12:36:58;4.10;;;1.17;;
14754;SDS011;7469;50.906;6.952;2022-09-21T12:39:34;6.13;;;1.47;;
14754;SDS011;7469;50.906;6.952;2022-09-21T12:42:09;4.47;;;1.30;;
14754;SDS011;7469;50.906;6.952;2022-09-21T12:44:50;3.30;;;1.30;;
14754;SDS011;7469;50.906;6.952;2022-09-21T12:47:24;4.50;;;1.47;;
14754;SDS011;7469;50.906;6.952;2022-09-21T12:50:02;3.50;;;1.23;;
14754;SDS011;7469;50.906;6.952;2022-09-21T12:52:40;5.73;;;1.50;;
14754;SDS011;7469;50.906;6.952;2022-09-21T12:55:14;4.20;;;1.60;;
14754;SDS011;7469;50.906;6.952;2022-09-21T12:57:57;1.17;;;0.97;;
14754;SDS011;7469;50.906;6.952;2022-09-21T13:00:46;5.53;;;1.20;;
14754;SDS011;7469;50.906;6.952;2022-09-21T13:03:23;1.67;;;0.87;;
14754;SDS011;7469;50.906;6.952;2022-09-21T13:06:03;3.20;;;1.20;;
14754;SDS011;7469;50.906;6.952;2022-09-21T13:08:55;3.23;;;1.10;;
14754;SDS011;7469;50.906;6.952;2022-09-21T13:11:31;4.13;;;1.00;;
14754;SDS011;7469;50.906;6.952;2022-09-21T13:14:01;4.37;;;1.23;;
14754;SDS011;7469;50.906;6.952;2022-09-21T13:16:31;4.17;;;1.30;;
14754;SDS011;7469;50.906;6.952;2022-09-21T13:19:02;2.40;;;1.13;;
14754;SDS011;7469;50.906;6.952;2022-09-21T13:21:32;1.90;;;1.07;;
14754;SDS011;7469;50.906;6.952;2022-09-21T13:24:00;2.13;;;1.13;;
14754;SDS011;7469;50.906;6.952;2022-09-21T13:26:31;2.33;;;1.10;;
14754;SDS011;7469;50.906;6.952;2022-09-21T13:29:25;4.37;;;1.23;;
14754;SDS011;7469;50.906;6.952;2022-09-21T13:31:57;2.27;;;1.00;;
14754;SDS011;7469;50.906;6.952;2022-09-21T13:34:31;3.10;;;1.27;;
14754;SDS011;7469;50.906;6.952;2022-09-21T13:43:17;3.57;;;1.10;;
14754;SDS011;7469;50.906;6.952;2022-09-21T13:45:49;3.47;;;1.10;;
14754;SDS011;7469;50.906;6.952;2022-09-21T13:48:21;1.97;;;1.00;;
14754;SDS011;7469;50.906;6.952;2022-09-21T13:50:56;4.77;;;1.20;;
14754;SDS011;7469;50.906;6.952;2022-09-21T13:53:31;2.73;;;0.80;;
14754;SDS011;7469;50.906;6.952;2022-09-21T13:56:07;1.07;;;0.70;;
14754;SDS011;7469;50.906;6.952;2022-09-21T13:58:43;3.17;;;0.83;;
14754;SDS011;7469;50.906;6.952;2022-09-21T14:01:16;4.37;;;1.03;;
14754;SDS011;7469;50.906;6.952;2022-09-21T14:04:14;3.50;;;1.23;;
14754;SDS011;7469;50.906;6.952;2022-09-21T14:06:46;1.53;;;0.60;;
14754;SDS011;7469;50.906;6.952;2022-09-21T14:09:20;2.00;;;1.10;;
14754;SDS011;7469;50.906;6.952;2022-09-21T14:11:55;3.27;;;1.00;;
14754;SDS011;7469;50.906;6.952;2022-09-21T14:14:26;4.67;;;0.83;;
14754;SDS011;7469;50.906;6.952;2022-09-21T14:16:58;2.20;;;0.50;;
14754;SDS011;7469;50.906;6.952;2022-09-21T14:22:35;1.57;;;0.60;;
14754;SDS011;7469;50.906;6.952;2022-09-21T14:28:13;3.67;;;1.20;;
14754;SDS011;7469;50.906;6.952;2022-09-21T14:30:48;1.60;;;0.90;;
14754;SDS011;7469;50.906;6.952;2022-09-21T14:33:27;2.07;;;0.60;;
14754;SDS011;7469;50.906;6.952;2022-09-21T14:36:05;1.23;;;0.77;;
14754;SDS011;7469;50.906;6.952;2022-09-21T14:38:39;1.03;;;0.60;;
14754;SDS011;7469;50.906;6.952;2022-09-21T14:41:19;1.33;;;0.70;;
14754;SDS011;7469;50.906;6.952;2022-09-21T14:43:50;3.50;;;0.80;;
14754;SDS011;7469;50.906;6.952;2022-09-21T14:46:27;1.53;;;0.80;;
14754;SDS011;7469;50.906;6.952;2022-09-21T14:49:12;3.00;;;0.90;;
14754;SDS011;7469;50.906;6.952;2022-09-21T14:51:52;1.80;;;0.63;;
14754;SDS011;7469;50.906;6.952;2022-09-21T14:54:42;1.93;;;0.90;;
14754;SDS011;7469;50.906;6.952;2022-09-21T14:57:21;3.27;;;1.20;;
14754;SDS011;7469;50.906;6.952;2022-09-21T15:00:11;3.87;;;1.27;;
14754;SDS011;7469;50.906;6.952;2022-09-21T15:02:47;4.27;;;1.30;;
14754;SDS011;7469;50.906;6.952;2022-09-21T15:05:24;1.50;;;0.90;;
14754;SDS011;7469;50.906;6.952;2022-09-21T15:08:04;6.03;;;1.80;;
14754;SDS011;7469;50.906;6.952;2022-09-21T15:11:09;3.70;;;1.13;;
14754;SDS011;7469;50.906;6.952;2022-09-21T15:13:49;2.13;;;1.20;;
14754;SDS011;7469;50.906;6.952;2022-09-21T15:16:23;2.40;;;1.17;;
14754;SDS011;7469;50.906;6.952;2022-09-21T15:19:04;3.80;;;1.30;;
14754;SDS011;7469;50.906;6.952;2022-09-21T15:21:39;2.23;;;1.07;;
14754;SDS011;7469;50.906;6.952;2022-09-21T15:24:15;3.80;;;1.20;;
14754;SDS011;7469;50.906;6.952;2022-09-21T15:26:50;2.27;;;1.20;;
14754;SDS011;7469;50.906;6.952;2022-09-21T15:29:22;4.23;;;1.30;;
14754;SDS011;7469;50.906;6.952;2022-09-21T15:31:52;3.03;;;1.50;;
14754;SDS011;7469;50.906;6.952;2022-09-21T15:34:21;3.13;;;1.47;;
14754;SDS011;7469;50.906;6.952;2022-09-21T15:36:49;2.50;;;1.10;;
14754;SDS011;7469;50.906;6.952;2022-09-21T15:39:21;5.10;;;1.50;;
14754;SDS011;7469;50.906;6.952;2022-09-21T15:44:45;3.03;;;1.20;;
14754;SDS011;7469;50.906;6.952;2022-09-21T15:47:17;4.30;;;1.40;;
14754;SDS011;7469;50.906;6.952;2022-09-21T15:49:47;2.23;;;1.37;;
14754;SDS011;7469;50.906;6.952;2022-09-21T15:52:18;6.50;;;1.50;;
14754;SDS011;7469;50.906;6.952;2022-09-21T15:54:51;2.47;;;1.20;;
14754;SDS011;7469;50.906;6.952;2022-09-21T15:57:31;5.73;;;1.50;;